Weather at Villach Heliport

Public forecast

Using degrees Celsius for public forecast. Weather courtesy of forecast.io.

Closest aviation weather report (METAR) to Villach Heliport

Closest report is Klagenfurt Airport, 19.9 nm (36.8 km) E.

2024/05/22 21:50 (retrieved 14 minutes ago)

LOWK 222150Z AUTO VRB01KT 9999 FEW050 SCT070 BKN080 15/12 Q1015 NOSIG

Closest aviation forecast (TAF) to Villach Heliport

Closest forecast is Klagenfurt Airport, 19.9 nm (36.8 km) E.

2024/05/22 20:53 Ammendment (retrieved 1 hour ago)

TAF AMD LOWK 222048Z 2220/2318 VRB03KT 9999 SCT030 BKN070 TX20/2313Z TN11/2303Z TEMPO 2220/2223 -RA PROB40 TEMPO 2221/2307 BKN007 TEMPO 2310/2318 09008KT SHRA FEW030CB SCT040 PROB40 TEMPO 2312/2317 VRB15KT 3000 TSRA